Urb Atenas, Puerto Rico
Current Conditions -  °F | °C
As of 10:56 AM on Friday 28 Nov 2014 (Local Time) from TJSJ Reporting Station
Scattered Clouds Scattered Clouds  
Wind Chill: 82°   Ceiling: Unl
Heat Index: 87°   Visibility: 10mi
Dew Point: 72°   Wind: 7mph
Humidity: 71%   Direction: 70°ENE
Pressure: 29.98"   Gusts: NA
Location:  18.4259°N, 66.4717°W
Report Text: TJSJ 281456Z 07006KT 10SM SCT030 28/22 A2998 RMK AO2 SLP152 T02780222 50001
Loading
Personal Weather Stations






























Interactive Weather Map New forecast layout! Learn more

10-Day Weather Forecast

Advertisements
Track Severe Weather on mobile